Time;durP1;ratioP1;P1;durP2;ratioP2;P2;SDS_P1;SDS_P2;PMS_P1;PMS_P2;Temp;Humidity;BMP_temperature;BMP_pressure;BME280_temperature;BME280_humidity;BME280_pressure;Samples;Min_cycle;Max_cycle;Signal;HPM_P1;HPM_P2
2022/10/17 00:02:04;;;;;;;5.77;3.90;;;;;;;13.65;100.00;98669.50;5038430;28;20344;-74
2022/10/17 00:04:32;;;;;;;5.03;4.20;;;;;;;13.64;100.00;98662.50;5038287;28;20665;-74
2022/10/17 00:06:58;;;;;;;4.63;3.80;;;;;;;13.60;100.00;98667.19;5038231;28;20260;-75
2022/10/17 00:09:25;;;;;;;6.27;4.10;;;;;;;13.58;100.00;98668.25;5038301;28;20268;-74
2022/10/17 00:11:52;;;;;;;5.30;4.80;;;;;;;13.60;100.00;98675.16;5038197;28;20584;-74
2022/10/17 00:14:18;;;;;;;5.77;4.53;;;;;;;13.57;100.00;98670.06;5038136;28;20262;-74
2022/10/17 00:16:45;;;;;;;9.67;4.60;;;;;;;13.55;100.00;98673.78;5038229;28;20276;-74
2022/10/17 00:19:11;;;;;;;6.83;5.13;;;;;;;13.53;100.00;98675.72;5038174;28;20600;-74
2022/10/17 00:21:39;;;;;;;6.07;5.20;;;;;;;13.50;100.00;98665.31;5037798;28;20264;-74
2022/10/17 00:24:06;;;;;;;7.37;5.53;;;;;;;13.48;100.00;98678.72;5035531;28;20287;-75
2022/10/17 00:26:33;;;;;;;7.13;5.40;;;;;;;13.44;100.00;98673.72;5037916;28;20229;-75
2022/10/17 00:29:00;;;;;;;8.17;5.50;;;;;;;13.40;100.00;98680.22;5037892;28;20261;-74
2022/10/17 00:31:26;;;;;;;6.97;5.03;;;;;;;13.37;100.00;98688.38;5037845;28;20264;-74
2022/10/17 00:33:53;;;;;;;7.73;5.50;;;;;;;13.32;100.00;98682.56;5037825;28;20324;-74
2022/10/17 00:36:21;;;;;;;6.30;5.00;;;;;;;13.26;100.00;98683.00;5037673;28;20272;-75
2022/10/17 00:38:52;;;;;;;7.37;5.30;;;;;;;13.19;100.00;98684.38;5037667;28;20275;-75
2022/10/17 00:41:23;;;;;;;7.67;4.80;;;;;;;13.16;100.00;98689.91;5037586;28;20271;-74
2022/10/17 00:43:52;;;;;;;5.63;4.67;;;;;;;13.13;100.00;98687.47;5037483;28;20913;-74
2022/10/17 00:46:19;;;;;;;6.97;4.47;;;;;;;13.07;100.00;98687.94;5037461;28;20271;-74
2022/10/17 00:48:48;;;;;;;10.23;5.37;;;;;;;13.05;100.00;98685.38;5037492;28;20268;-74
2022/10/17 00:51:16;;;;;;;6.00;4.63;;;;;;;13.07;100.00;98682.63;5032590;28;20268;-74
2022/10/17 00:53:43;;;;;;;8.53;4.73;;;;;;;13.03;100.00;98675.81;5037352;28;20261;-74
2022/10/17 00:56:11;;;;;;;8.03;4.90;;;;;;;13.05;100.00;98689.81;5037156;28;20287;-74
2022/10/17 00:58:38;;;;;;;6.70;4.40;;;;;;;13.02;100.00;98687.41;5037242;28;20264;-75
2022/10/17 01:01:05;;;;;;;8.50;5.47;;;;;;;12.96;100.00;98690.47;5037274;28;20276;-74
2022/10/17 01:03:32;;;;;;;6.87;5.10;;;;;;;12.95;100.00;98692.28;5037217;28;20280;-74
2022/10/17 01:05:58;;;;;;;6.40;4.97;;;;;;;12.93;100.00;98685.34;5037218;28;20337;-74
2022/10/17 01:08:25;;;;;;;6.73;4.60;;;;;;;12.96;100.00;98682.53;5037200;28;20267;-74
2022/10/17 01:11:01;;;;;;;7.50;4.93;;;;;;;12.89;100.00;98683.88;5037038;28;20310;-74
2022/10/17 01:13:36;;;;;;;5.40;4.20;;;;;;;12.97;100.00;98685.03;5036851;28;20271;-74
2022/10/17 01:16:09;;;;;;;6.40;4.70;;;;;;;12.97;100.00;98687.69;5035146;28;20402;-74
2022/10/17 01:18:51;;;;;;;6.87;4.07;;;;;;;12.93;100.00;98686.19;5037100;28;20606;-74
2022/10/17 01:21:42;;;;;;;7.10;4.53;;;;;;;12.91;100.00;98689.91;5036965;28;20260;-74
2022/10/17 01:24:29;;;;;;;5.87;4.27;;;;;;;12.90;100.00;98686.41;5027957;28;20314;-74
2022/10/17 01:27:32;;;;;;;6.93;4.10;;;;;;;12.87;100.00;98683.13;5031026;28;20268;-74
2022/10/17 01:30:30;;;;;;;6.50;4.93;;;;;;;12.76;100.00;98678.56;4999859;28;20306;-74
2022/10/17 01:33:02;;;;;;;7.13;4.60;;;;;;;12.83;100.00;98686.97;4983314;28;20267;-74
2022/10/17 01:35:35;;;;;;;6.63;4.73;;;;;;;12.85;100.00;98677.06;5037036;28;20257;-74
2022/10/17 01:38:07;;;;;;;5.20;4.20;;;;;;;12.80;100.00;98684.50;5036892;28;20641;-74
2022/10/17 01:40:37;;;;;;;6.37;4.13;;;;;;;12.76;100.00;98688.31;5029684;28;20714;-74
2022/10/17 01:43:09;;;;;;;5.87;4.07;;;;;;;12.72;100.00;98681.53;5035194;28;20264;-74
2022/10/17 01:45:43;;;;;;;5.03;4.43;;;;;;;12.71;100.00;98682.50;5036721;28;20271;-74
2022/10/17 01:48:16;;;;;;;7.77;4.73;;;;;;;12.67;100.00;98687.16;5036690;28;20270;-74
2022/10/17 01:50:48;;;;;;;6.23;4.20;;;;;;;12.65;100.00;98686.41;5036726;28;20272;-74
2022/10/17 01:53:21;;;;;;;4.87;4.03;;;;;;;12.69;100.00;98676.44;5028256;28;20275;-75
2022/10/17 01:55:51;;;;;;;6.63;4.40;;;;;;;12.63;100.00;98679.50;5036407;28;20287;-74
2022/10/17 01:58:23;;;;;;;5.67;3.80;;;;;;;12.58;100.00;98677.16;5029975;28;20271;-75
2022/10/17 02:00:52;;;;;;;5.40;4.50;;;;;;;12.54;100.00;98682.81;5036520;28;20268;-74
2022/10/17 02:03:21;;;;;;;4.80;4.17;;;;;;;12.50;100.00;98686.59;5036668;28;20264;-74
2022/10/17 02:05:48;;;;;;;5.03;3.87;;;;;;;12.50;100.00;98681.31;5036463;28;20667;-74
2022/10/17 02:08:25;;;;;;;4.97;3.93;;;;;;;12.51;100.00;98672.38;5034692;28;20270;-74
2022/10/17 02:10:57;;;;;;;7.37;4.00;;;;;;;12.51;100.00;98667.09;5036575;28;20611;-76
2022/10/17 02:13:33;;;;;;;4.43;3.63;;;;;;;12.46;100.00;98669.22;5036644;28;20322;-74
2022/10/17 02:16:12;;;;;;;6.13;3.87;;;;;;;12.42;100.00;98678.34;5029702;28;20266;-76
2022/10/17 02:18:57;;;;;;;6.03;3.90;;;;;;;12.38;100.00;98671.53;5036480;28;20581;-76
2022/10/17 02:21:31;;;;;;;6.17;4.03;;;;;;;12.36;100.00;98670.78;5036365;28;20528;-75
2022/10/17 02:24:06;;;;;;;6.03;3.70;;;;;;;12.34;100.00;98675.38;5036410;28;20286;-76
2022/10/17 02:26:40;;;;;;;5.83;3.47;;;;;;;12.32;100.00;98682.53;5036353;28;20593;-76
2022/10/17 02:29:14;;;;;;;4.63;3.73;;;;;;;12.27;100.00;98674.91;5036363;28;20254;-76
2022/10/17 02:31:46;;;;;;;4.53;3.53;;;;;;;12.25;100.00;98682.13;5029183;28;20259;-76
2022/10/17 02:34:18;;;;;;;4.47;3.60;;;;;;;12.27;100.00;98684.66;5034486;28;20643;-76
2022/10/17 02:36:50;;;;;;;6.30;4.00;;;;;;;12.31;100.00;98675.56;5036489;28;20313;-76
2022/10/17 02:39:19;;;;;;;5.73;4.30;;;;;;;12.34;100.00;98681.50;5036235;28;20259;-75
2022/10/17 02:41:47;;;;;;;4.63;4.03;;;;;;;12.31;100.00;98675.56;5036110;28;20271;-75
2022/10/17 02:44:14;;;;;;;5.20;3.73;;;;;;;12.30;100.00;98687.09;5036274;28;20282;-75
2022/10/17 02:46:42;;;;;;;4.40;4.00;;;;;;;12.28;100.00;98689.03;5038738;28;20225;-75
2022/10/17 02:49:17;;;;;;;6.37;4.30;;;;;;;12.29;100.00;98688.06;5039844;28;20270;-75
2022/10/17 02:51:50;;;;;;;6.47;4.27;;;;;;;12.26;100.00;98689.13;5039731;28;20602;-76
2022/10/17 02:54:20;;;;;;;4.73;4.17;;;;;;;12.23;100.00;98691.97;5031761;28;20224;-76
2022/10/17 02:56:51;;;;;;;4.30;3.63;;;;;;;12.23;100.00;98683.19;5038272;28;20287;-75
2022/10/17 02:59:22;;;;;;;6.40;4.40;;;;;;;12.27;100.00;98685.50;5039689;28;20609;-75
2022/10/17 03:01:50;;;;;;;6.80;4.40;;;;;;;12.28;100.00;98678.44;5037860;28;20271;-75
2022/10/17 03:04:18;;;;;;;5.27;4.00;;;;;;;12.29;100.00;98685.41;5039421;28;20241;-76
2022/10/17 03:06:47;;;;;;;6.67;4.37;;;;;;;12.31;100.00;98687.03;5039419;28;20259;-75
2022/10/17 03:09:14;;;;;;;4.60;3.90;;;;;;;12.28;100.00;98686.38;5039503;28;20259;-76
2022/10/17 03:11:40;;;;;;;5.47;4.10;;;;;;;12.23;100.00;98683.19;5039318;28;20267;-75
2022/10/17 03:14:07;;;;;;;3.60;3.30;;;;;;;12.21;100.00;98690.34;5039325;28;20328;-75
2022/10/17 03:16:34;;;;;;;4.37;3.87;;;;;;;12.16;100.00;98676.59;5039203;28;20263;-75
2022/10/17 03:19:00;;;;;;;4.77;4.10;;;;;;;12.14;100.00;98691.72;5039198;28;20266;-75
2022/10/17 03:21:28;;;;;;;6.43;4.00;;;;;;;12.08;100.00;98695.66;5032602;28;20260;-74
2022/10/17 03:23:55;;;;;;;4.53;3.80;;;;;;;12.00;100.00;98697.09;5038960;28;20228;-75
2022/10/17 03:26:22;;;;;;;5.70;4.10;;;;;;;11.90;100.00;98696.84;5037247;28;20264;-75
2022/10/17 03:28:48;;;;;;;4.60;3.93;;;;;;;11.89;100.00;98700.47;5039248;28;20312;-76
2022/10/17 03:31:17;;;;;;;4.73;4.03;;;;;;;11.88;100.00;98703.19;5038935;28;20270;-74
2022/10/17 03:33:43;;;;;;;5.10;4.10;;;;;;;11.88;100.00;98697.91;5038995;28;20264;-74
2022/10/17 03:36:12;;;;;;;5.47;4.20;;;;;;;11.89;100.00;98699.59;5038945;28;20260;-76
2022/10/17 03:38:40;;;;;;;6.03;4.90;;;;;;;11.92;100.00;98699.41;5038810;28;20675;-76
2022/10/17 03:41:07;;;;;;;6.90;4.03;;;;;;;11.92;100.00;98697.59;5038631;28;20271;-76
2022/10/17 03:43:34;;;;;;;5.00;4.30;;;;;;;11.93;100.00;98699.28;5038719;28;20684;-75
2022/10/17 03:46:01;;;;;;;6.43;4.70;;;;;;;11.94;100.00;98700.16;5038573;28;20330;-76
2022/10/17 03:48:30;;;;;;;7.00;4.90;;;;;;;11.93;100.00;98701.94;5038671;28;20260;-76
2022/10/17 03:50:58;;;;;;;6.10;4.83;;;;;;;11.95;100.00;98699.19;5038536;28;20260;-76
2022/10/17 03:53:25;;;;;;;6.97;4.83;;;;;;;12.03;100.00;98707.47;5036881;28;20262;-76
2022/10/17 03:55:53;;;;;;;7.40;5.13;;;;;;;12.04;100.00;98709.22;5036476;28;20631;-76
2022/10/17 03:58:20;;;;;;;8.77;5.33;;;;;;;12.06;100.00;98707.28;5037421;28;20267;-76
2022/10/17 04:00:46;;;;;;;7.90;5.13;;;;;;;12.08;100.00;98708.03;5038352;28;20507;-76
2022/10/17 04:03:13;;;;;;;7.23;4.83;;;;;;;12.06;100.00;98709.94;5038560;28;20289;-76
2022/10/17 04:05:40;;;;;;;6.00;4.93;;;;;;;12.05;100.00;98710.91;5038329;28;20335;-76
2022/10/17 04:08:06;;;;;;;6.90;4.70;;;;;;;12.06;100.00;98710.81;5038495;28;20232;-75
2022/10/17 04:10:33;;;;;;;7.03;5.07;;;;;;;12.06;100.00;98712.59;5038345;28;20610;-75
2022/10/17 04:13:01;;;;;;;5.53;4.97;;;;;;;12.10;100.00;98708.81;5038259;28;20231;-75
2022/10/17 04:15:28;;;;;;;6.57;4.77;;;;;;;12.11;100.00;98721.09;5038082;28;20221;-75
2022/10/17 04:17:55;;;;;;;5.37;4.87;;;;;;;12.14;100.00;98718.22;5036964;28;20270;-75
2022/10/17 04:20:21;;;;;;;6.50;5.20;;;;;;;12.11;100.00;98719.28;5037727;28;20266;-75
2022/10/17 04:22:48;;;;;;;6.37;4.90;;;;;;;12.09;100.00;98728.28;5038261;28;20264;-75
2022/10/17 04:25:15;;;;;;;7.00;5.10;;;;;;;12.04;100.00;98723.28;5037996;28;20574;-75
2022/10/17 04:27:41;;;;;;;9.57;4.97;;;;;;;12.07;100.00;98724.88;5037893;28;20583;-75
2022/10/17 04:30:10;;;;;;;6.73;5.10;;;;;;;12.03;100.00;98726.03;5037895;28;20265;-75
2022/10/17 04:32:38;;;;;;;6.67;5.13;;;;;;;12.04;100.00;98725.09;5038133;28;20323;-75
2022/10/17 04:35:05;;;;;;;7.23;4.80;;;;;;;12.04;100.00;98736.53;5037851;28;20307;-75
2022/10/17 04:37:32;;;;;;;7.90;5.40;;;;;;;12.06;100.00;98734.66;5030700;28;20260;-75
2022/10/17 04:39:59;;;;;;;7.97;5.70;;;;;;;12.10;100.00;98745.91;5037834;28;20266;-76
2022/10/17 04:42:25;;;;;;;5.73;4.80;;;;;;;12.08;100.00;98740.69;5037712;28;20675;-75
2022/10/17 04:44:52;;;;;;;7.73;5.07;;;;;;;12.07;100.00;98746.09;5035746;28;20290;-75
2022/10/17 04:47:20;;;;;;;9.83;5.47;;;;;;;12.03;100.00;98741.91;5037407;28;20268;-75
2022/10/17 04:49:46;;;;;;;5.70;4.97;;;;;;;12.01;100.00;98743.84;5037389;28;20268;-75
2022/10/17 04:52:13;;;;;;;7.40;5.10;;;;;;;12.00;100.00;98742.13;5037493;28;20267;-75
2022/10/17 04:54:40;;;;;;;5.17;4.63;;;;;;;12.02;100.00;98740.22;5037374;28;20263;-75
2022/10/17 04:57:06;;;;;;;6.63;5.17;;;;;;;12.04;100.00;98739.19;5036472;28;20255;-75
2022/10/17 04:59:33;;;;;;;7.03;5.53;;;;;;;12.05;100.00;98727.63;5037382;28;20556;-75
2022/10/17 05:02:00;;;;;;;7.23;5.83;;;;;;;12.08;100.00;98735.38;5037228;28;20260;-75
2022/10/17 05:04:27;;;;;;;6.60;5.23;;;;;;;12.10;100.00;98735.31;5037137;28;20270;-75
2022/10/17 05:06:54;;;;;;;9.23;5.80;;;;;;;12.12;100.00;98744.00;5037194;28;20359;-75
2022/10/17 05:09:21;;;;;;;7.37;5.30;;;;;;;12.12;100.00;98738.69;5036876;28;20264;-75
2022/10/17 05:11:47;;;;;;;8.03;5.17;;;;;;;12.13;100.00;98748.31;5035340;28;20228;-75
2022/10/17 05:14:15;;;;;;;8.30;5.13;;;;;;;12.11;100.00;98742.28;5037119;28;20267;-75
2022/10/17 05:16:42;;;;;;;6.93;5.30;;;;;;;12.11;100.00;98745.78;5037167;28;20268;-75
2022/10/17 05:19:08;;;;;;;5.87;4.73;;;;;;;12.12;100.00;98746.63;5037011;28;20639;-76
2022/10/17 05:21:37;;;;;;;6.10;5.00;;;;;;;12.17;100.00;98745.38;5036977;28;20273;-75
2022/10/17 05:24:05;;;;;;;8.47;5.37;;;;;;;12.21;100.00;98741.56;5036858;28;20662;-75
2022/10/17 05:26:32;;;;;;;6.57;5.30;;;;;;;12.21;100.00;98736.28;5036820;28;20279;-75
2022/10/17 05:29:01;;;;;;;8.57;5.53;;;;;;;12.29;100.00;98735.78;5036916;28;20350;-75
2022/10/17 05:31:28;;;;;;;8.67;5.33;;;;;;;12.29;100.00;98741.91;5036825;28;20307;-75
2022/10/17 05:33:55;;;;;;;6.30;5.70;;;;;;;12.28;100.00;98745.53;5036964;28;20263;-75
2022/10/17 05:36:22;;;;;;;7.50;5.40;;;;;;;12.27;100.00;98738.53;5035184;28;20263;-74
2022/10/17 05:38:51;;;;;;;8.60;5.63;;;;;;;12.33;100.00;98742.56;5036983;28;20269;-74
2022/10/17 05:41:18;;;;;;;9.33;6.07;;;;;;;12.31;100.00;98744.47;5036793;28;20232;-74
2022/10/17 05:43:45;;;;;;;6.30;5.00;;;;;;;12.33;100.00;98747.84;5036867;28;20262;-74
2022/10/17 05:46:12;;;;;;;6.40;5.57;;;;;;;12.28;100.00;98755.28;5036743;28;20614;-74
2022/10/17 05:48:38;;;;;;;7.30;5.90;;;;;;;12.30;100.00;98756.03;5036906;28;20646;-74
2022/10/17 05:51:07;;;;;;;7.77;5.60;;;;;;;12.24;100.00;98749.31;5036532;28;20300;-74
2022/10/17 05:53:36;;;;;;;5.73;4.70;;;;;;;12.22;100.00;98756.53;5036581;28;20231;-74
2022/10/17 05:56:06;;;;;;;7.27;5.47;;;;;;;12.16;100.00;98761.41;5034812;28;20272;-74
2022/10/17 05:58:34;;;;;;;5.93;4.80;;;;;;;12.13;100.00;98756.28;5036512;28;20226;-74
2022/10/17 06:01:03;;;;;;;6.53;5.40;;;;;;;12.10;100.00;98765.28;5036520;28;20631;-74
2022/10/17 06:03:30;;;;;;;7.23;4.93;;;;;;;12.08;100.00;98768.97;5034762;28;20293;-74
2022/10/17 06:06:02;;;;;;;7.73;5.30;;;;;;;12.06;100.00;98766.44;5036249;28;20290;-74
2022/10/17 06:08:29;;;;;;;8.33;5.47;;;;;;;12.07;100.00;98767.28;5028202;28;20317;-74
2022/10/17 06:10:55;;;;;;;8.60;5.70;;;;;;;12.10;100.00;98777.69;5036332;28;20263;-74
2022/10/17 06:13:23;;;;;;;10.93;6.13;;;;;;;12.12;100.00;98770.47;5036361;28;20582;-75
2022/10/17 06:15:50;;;;;;;7.23;5.57;;;;;;;12.17;100.00;98779.81;5036378;28;20293;-75
2022/10/17 06:18:17;;;;;;;8.30;5.70;;;;;;;12.18;100.00;98780.69;5036522;28;20579;-75
2022/10/17 06:20:43;;;;;;;6.60;5.17;;;;;;;12.19;100.00;98777.94;5037492;28;20274;-75
2022/10/17 06:23:10;;;;;;;8.10;5.83;;;;;;;12.18;100.00;98778.88;5040309;28;20262;-75
2022/10/17 06:25:37;;;;;;;11.50;6.70;;;;;;;12.19;100.00;98774.44;5040105;28;20659;-75
2022/10/17 06:28:04;;;;;;;9.00;6.37;;;;;;;12.23;100.00;98773.28;5038397;28;20267;-76
2022/10/17 06:30:32;;;;;;;8.37;5.87;;;;;;;12.24;100.00;98772.34;5040085;28;20646;-75
2022/10/17 06:32:58;;;;;;;11.17;6.90;;;;;;;12.22;100.00;98772.44;5040015;28;20368;-76
2022/10/17 06:35:25;;;;;;;8.57;5.90;;;;;;;12.24;100.00;98785.59;5040053;28;20269;-76
2022/10/17 06:37:52;;;;;;;9.67;6.00;;;;;;;12.24;100.00;98780.28;5040061;28;20283;-76
2022/10/17 06:40:18;;;;;;;7.50;5.60;;;;;;;12.26;100.00;98784.53;5039916;28;20267;-76
2022/10/17 06:42:45;;;;;;;8.87;6.07;;;;;;;12.25;100.00;98785.50;5039940;28;20264;-76
2022/10/17 06:45:11;;;;;;;11.73;5.87;;;;;;;12.29;100.00;98794.91;5039777;28;20692;-76
2022/10/17 06:47:40;;;;;;;8.37;5.67;;;;;;;12.33;100.00;98800.88;5039841;28;20278;-76
2022/10/17 06:50:07;;;;;;;9.50;5.70;;;;;;;12.36;100.00;98813.94;5039679;28;20264;-75
2022/10/17 06:52:33;;;;;;;7.43;5.73;;;;;;;12.41;100.00;98814.50;5039678;28;20271;-75
2022/10/17 06:55:00;;;;;;;10.40;6.40;;;;;;;12.45;100.00;98815.97;5037862;28;20294;-75
2022/10/17 06:57:27;;;;;;;10.90;5.60;;;;;;;12.48;100.00;98829.03;5039493;28;20257;-75
2022/10/17 06:59:56;;;;;;;7.37;5.40;;;;;;;12.52;100.00;98819.91;5039405;28;20268;-75
2022/10/17 07:02:23;;;;;;;8.90;6.07;;;;;;;12.58;100.00;98825.66;5039508;28;20225;-75
2022/10/17 07:04:51;;;;;;;8.70;5.40;;;;;;;12.64;100.00;98829.72;5039296;28;20232;-75
2022/10/17 07:07:18;;;;;;;7.90;6.50;;;;;;;12.69;100.00;98831.13;5038532;28;20271;-76
2022/10/17 07:09:44;;;;;;;7.60;5.97;;;;;;;12.76;100.00;98831.53;5039279;28;20355;-75
2022/10/17 07:12:11;;;;;;;7.00;5.90;;;;;;;12.83;100.00;98836.34;5037651;28;20264;-76
2022/10/17 07:14:38;;;;;;;6.97;5.37;;;;;;;12.94;100.00;98841.78;5036755;28;20534;-76
2022/10/17 07:17:04;;;;;;;7.33;5.57;;;;;;;13.03;100.00;98841.19;5038681;28;20256;-74
2022/10/17 07:19:31;;;;;;;9.03;5.53;;;;;;;13.15;100.00;98844.81;5039204;28;20271;-73
2022/10/17 07:21:59;;;;;;;7.80;6.07;;;;;;;13.23;100.00;98847.78;5036349;28;20610;-75
2022/10/17 07:24:26;;;;;;;9.43;6.47;;;;;;;13.30;100.00;98843.75;5037616;28;20264;-75
2022/10/17 07:26:52;;;;;;;10.97;6.73;;;;;;;13.39;100.00;98845.81;5037561;28;20280;-74
2022/10/17 07:29:19;;;;;;;10.73;6.70;;;;;;;13.42;100.00;98849.09;5037531;28;20314;-74
2022/10/17 07:31:50;;;;;;;9.60;6.37;;;;;;;13.53;100.00;98849.19;5034169;28;20266;-74
2022/10/17 07:34:17;;;;;;;7.07;6.37;;;;;;;13.62;100.00;98850.38;5037468;28;20218;-74
2022/10/17 07:36:44;;;;;;;9.17;6.43;;;;;;;13.71;100.00;98849.72;5037405;28;20582;-74
2022/10/17 07:39:12;;;;;;;8.70;6.17;;;;;;;13.82;100.00;98847.16;5037509;28;20655;-74
2022/10/17 07:41:39;;;;;;;7.07;5.90;;;;;;;13.92;100.00;98854.34;5037448;28;20268;-73
2022/10/17 07:44:06;;;;;;;7.33;5.73;;;;;;;14.01;100.00;98853.72;5036601;28;20271;-73
2022/10/17 07:46:32;;;;;;;7.10;6.03;;;;;;;14.09;100.00;98861.09;5036375;28;20285;-73
2022/10/17 07:48:59;;;;;;;6.90;5.87;;;;;;;14.19;100.00;98862.19;5036669;28;20272;-73
2022/10/17 07:51:26;;;;;;;6.47;5.70;;;;;;;14.28;100.00;98866.84;5037208;28;20268;-74
2022/10/17 07:53:53;;;;;;;6.63;5.57;;;;;;;14.38;100.00;98866.06;5037219;28;20586;-73
2022/10/17 07:56:23;;;;;;;8.30;5.57;;;;;;;14.49;100.00;98862.63;5035760;28;20285;-73
2022/10/17 07:58:50;;;;;;;7.10;4.97;;;;;;;14.57;100.00;98868.22;5037114;28;20269;-74
2022/10/17 08:01:17;;;;;;;6.47;5.10;;;;;;;14.62;100.00;98864.28;5037126;28;20257;-73
2022/10/17 08:03:45;;;;;;;6.10;5.20;;;;;;;14.73;100.00;98866.13;5036853;28;20653;-74
2022/10/17 08:06:12;;;;;;;6.93;4.97;;;;;;;14.77;100.00;98870.25;5037035;28;20279;-73
2022/10/17 08:08:39;;;;;;;6.87;4.83;;;;;;;14.85;100.00;98876.69;5036989;28;20288;-74
2022/10/17 08:11:08;;;;;;;6.37;5.00;;;;;;;14.94;100.00;98878.69;5033535;28;20273;-73
2022/10/17 08:13:36;;;;;;;9.03;4.97;;;;;;;15.00;100.00;98878.22;5034115;28;20605;-73
2022/10/17 08:16:06;;;;;;;5.47;4.30;;;;;;;15.07;100.00;98875.94;5036072;28;20257;-72
2022/10/17 08:18:32;;;;;;;8.60;4.37;;;;;;;15.16;100.00;98884.06;5035031;28;20232;-73
2022/10/17 08:21:00;;;;;;;8.93;4.37;;;;;;;15.23;100.00;98884.47;5024699;28;20612;-73
2022/10/17 08:23:27;;;;;;;4.90;4.40;;;;;;;15.32;100.00;98883.75;5035703;28;20370;-73
2022/10/17 08:25:54;;;;;;;7.10;4.40;;;;;;;15.41;100.00;98877.78;5034838;28;20257;-73
2022/10/17 08:28:21;;;;;;;5.67;4.10;;;;;;;15.48;100.00;98884.31;5035821;28;20592;-72
2022/10/17 08:30:49;;;;;;;4.93;4.07;;;;;;;15.56;100.00;98885.44;5035290;28;20592;-73
2022/10/17 08:33:15;;;;;;;5.13;4.00;;;;;;;15.64;100.00;98890.19;5035001;28;20659;-74
2022/10/17 08:35:42;;;;;;;5.33;3.57;;;;;;;15.71;100.00;98897.56;5036488;28;20263;-73
2022/10/17 08:38:09;;;;;;;6.63;3.60;;;;;;;15.75;100.00;98901.69;5036400;28;20259;-73
2022/10/17 08:40:37;;;;;;;5.33;3.47;;;;;;;15.80;100.00;98902.19;5034636;28;20271;-74
2022/10/17 08:43:31;;;;;;;3.37;3.07;;;;;;;15.90;100.00;98907.66;5036006;28;20235;-73
2022/10/17 08:46:02;;;;;;;4.50;2.90;;;;;;;16.06;100.00;98897.47;5036195;28;20255;-74
2022/10/17 08:48:31;;;;;;;3.83;2.50;;;;;;;16.13;100.00;98897.72;5036277;28;20553;-74
2022/10/17 08:51:01;;;;;;;3.93;3.00;;;;;;;16.24;100.00;98897.72;5036275;28;20267;-74
2022/10/17 08:53:34;;;;;;;4.60;3.30;;;;;;;16.32;100.00;98900.59;5036283;28;20224;-73
2022/10/17 08:56:06;;;;;;;3.77;3.00;;;;;;;16.42;100.00;98901.59;5036006;28;20348;-74
2022/10/17 08:58:36;;;;;;;3.87;2.90;;;;;;;16.53;100.00;98898.88;5036131;28;20294;-73
2022/10/17 09:01:13;;;;;;;4.43;2.90;;;;;;;16.67;100.00;98905.78;5036104;28;20267;-74
2022/10/17 09:03:59;;;;;;;3.67;2.60;;;;;;;16.75;100.00;98904.19;5035983;28;20228;-73
2022/10/17 09:06:29;;;;;;;5.60;2.97;;;;;;;16.83;100.00;98907.06;5032651;28;20279;-75
2022/10/17 09:09:09;;;;;;;4.63;2.80;;;;;;;17.00;100.00;98901.19;5033270;28;20229;-75
2022/10/17 09:11:52;;;;;;;5.57;2.57;;;;;;;17.17;100.00;98905.97;5035087;28;20605;-73
2022/10/17 09:14:44;;;;;;;4.67;2.63;;;;;;;17.32;100.00;98899.34;5035732;28;20267;-76
2022/10/17 09:17:20;;;;;;;3.17;2.60;;;;;;;17.47;100.00;98898.09;5035914;28;20260;-75
2022/10/17 09:19:57;;;;;;;4.63;2.30;;;;;;;17.61;100.00;98894.25;5035781;28;20263;-75
2022/10/17 09:22:27;;;;;;;3.77;2.30;;;;;;;17.65;100.00;98895.66;5026048;28;20263;-75
2022/10/17 09:24:58;;;;;;;3.50;2.30;;;;;;;17.71;100.00;98887.97;5035038;28;20260;-75
2022/10/17 09:27:32;;;;;;;3.40;2.30;;;;;;;17.79;100.00;98888.16;5035600;28;20502;-75
2022/10/17 09:30:15;;;;;;;2.97;2.30;;;;;;;17.86;100.00;98883.97;5035642;28;20274;-75
2022/10/17 09:32:43;;;;;;;3.53;2.50;;;;;;;17.98;100.00;98872.19;5035635;28;20267;-75
2022/10/17 09:35:13;;;;;;;2.67;2.30;;;;;;;18.11;100.00;98877.31;5033844;28;20330;-75
2022/10/17 09:37:40;;;;;;;3.40;2.60;;;;;;;18.21;100.00;98868.34;5026377;28;20570;-76
2022/10/17 09:40:16;;;;;;;5.60;2.57;;;;;;;18.29;100.00;98876.53;5035559;28;20264;-75
2022/10/17 09:42:45;;;;;;;3.00;2.20;;;;;;;18.39;100.00;98873.91;5035595;28;20591;-76
2022/10/17 09:45:18;;;;;;;2.50;2.07;;;;;;;18.50;98.88;98869.31;5032776;28;20602;-78
2022/10/17 09:47:55;;;;;;;2.57;2.17;;;;;;;18.61;99.88;98868.34;5035059;28;20244;-74
2022/10/17 09:50:27;;;;;;;2.80;2.03;;;;;;;18.67;100.00;98865.97;5035249;28;20228;-73
2022/10/17 09:52:55;;;;;;;3.43;2.20;;;;;;;18.75;100.00;98863.44;5035329;28;20264;-75
2022/10/17 09:55:29;;;;;;;4.47;2.77;;;;;;;18.87;99.95;98867.69;5035769;28;20678;-75
2022/10/17 09:57:58;;;;;;;3.30;2.10;;;;;;;18.90;99.40;98854.00;5031422;28;20256;-75
2022/10/17 10:00:26;;;;;;;2.20;1.80;;;;;;;18.93;98.15;98861.78;5039234;28;20599;-75
2022/10/17 10:03:10;;;;;;;2.83;2.27;;;;;;;19.01;97.24;98859.22;5038209;28;20263;-75
2022/10/17 10:05:37;;;;;;;2.33;2.10;;;;;;;19.10;96.17;98849.50;5029320;28;20264;-75
2022/10/17 10:08:12;;;;;;;3.27;2.20;;;;;;;19.22;95.79;98851.94;5039167;28;20287;-75
2022/10/17 10:10:41;;;;;;;3.37;2.30;;;;;;;19.33;94.07;98843.72;5039342;28;20266;-75
2022/10/17 10:13:20;;;;;;;5.27;2.37;;;;;;;19.46;94.23;98844.28;5039086;28;20233;-76
2022/10/17 10:15:48;;;;;;;3.27;2.37;;;;;;;19.55;94.03;98854.13;5039194;28;20236;-75
2022/10/17 10:18:31;;;;;;;3.40;2.00;;;;;;;19.61;94.09;98850.88;5039117;28;20278;-76
2022/10/17 10:21:08;;;;;;;3.50;2.50;;;;;;;19.65;93.72;98856.78;5038581;28;20256;-76
2022/10/17 10:23:38;;;;;;;3.43;2.23;;;;;;;19.70;94.48;98860.72;5038933;28;20267;-76
2022/10/17 10:26:17;;;;;;;5.43;2.50;;;;;;;19.75;94.20;98860.31;5038805;28;20228;-75
2022/10/17 10:28:52;;;;;;;3.57;2.47;;;;;;;19.86;93.45;98852.03;5037151;28;20231;-75
2022/10/17 10:31:26;;;;;;;2.83;2.37;;;;;;;19.95;92.98;98868.16;5038765;28;20264;-75
2022/10/17 10:33:55;;;;;;;2.87;2.27;;;;;;;20.01;92.84;98867.56;5038783;28;20670;-75
2022/10/17 10:36:23;;;;;;;3.33;2.70;;;;;;;20.08;92.71;98862.47;5033770;28;20307;-76
2022/10/17 10:38:53;;;;;;;4.73;2.83;;;;;;;20.21;91.47;98860.28;5038574;28;20267;-75
2022/10/17 10:41:20;;;;;;;3.27;2.13;;;;;;;20.32;90.95;98860.94;5038679;28;20273;-76
2022/10/17 10:43:49;;;;;;;4.47;2.27;;;;;;;20.43;90.61;98860.72;5038604;28;20225;-75
2022/10/17 10:46:20;;;;;;;3.60;2.53;;;;;;;20.56;89.73;98857.69;5037580;28;20472;-80
2022/10/17 10:48:52;;;;;;;5.27;2.60;;;;;;;20.66;89.37;98863.88;5026969;28;20288;-77
2022/10/17 10:51:26;;;;;;;3.73;2.53;;;;;;;20.72;89.25;98852.50;5034079;28;20263;-77
2022/10/17 10:54:00;;;;;;;5.57;2.63;;;;;;;20.79;88.44;98859.78;5036897;28;20260;-77
2022/10/17 10:56:33;;;;;;;3.97;2.57;;;;;;;20.82;87.77;98848.75;5037219;28;20745;-77
2022/10/17 10:59:05;;;;;;;6.07;2.77;;;;;;;20.87;87.05;98849.16;5038427;28;20266;-77
2022/10/17 11:01:39;;;;;;;2.93;2.63;;;;;;;20.94;87.82;98850.25;5038454;28;20651;-77
2022/10/17 11:04:20;;;;;;;3.13;2.30;;;;;;;21.01;88.14;98854.00;5038365;28;20267;-77
2022/10/17 11:06:52;;;;;;;3.07;2.63;;;;;;;21.01;88.19;98847.78;5037818;28;20614;-77
2022/10/17 11:09:28;;;;;;;4.47;2.90;;;;;;;21.05;87.42;98854.53;5038240;28;20263;-77
2022/10/17 11:12:01;;;;;;;5.03;2.80;;;;;;;21.18;87.58;98850.47;5034128;28;20654;-77
2022/10/17 11:14:38;;;;;;;5.63;2.70;;;;;;;21.23;86.17;98842.81;5028030;28;20532;-77
2022/10/17 11:17:12;;;;;;;2.97;2.60;;;;;;;21.33;84.65;98830.09;5038100;28;20646;-77
2022/10/17 11:19:45;;;;;;;2.60;2.30;;;;;;;21.38;83.15;98830.47;5033103;28;20221;-76
2022/10/17 11:22:18;;;;;;;3.67;2.70;;;;;;;21.50;83.21;98828.34;5036237;28;20263;-76
2022/10/17 11:24:55;;;;;;;3.80;2.57;;;;;;;21.57;83.79;98834.81;5037902;28;20611;-77
2022/10/17 11:27:23;;;;;;;4.30;2.60;;;;;;;21.62;83.64;98822.56;5036581;28;20340;-77
2022/10/17 11:29:50;;;;;;;3.17;2.40;;;;;;;21.66;82.41;98818.56;5037696;28;20263;-76
2022/10/17 11:32:23;;;;;;;4.43;2.40;;;;;;;21.72;81.52;98807.22;5037702;28;20270;-77
2022/10/17 11:34:54;;;;;;;3.40;2.40;;;;;;;21.79;83.47;98820.84;5037816;28;20225;-77
2022/10/17 11:37:28;;;;;;;3.70;2.57;;;;;;;21.89;81.18;98808.97;5033056;28;20260;-76
2022/10/17 11:40:00;;;;;;;3.00;2.37;;;;;;;21.97;81.13;98809.03;5037783;28;20279;-76